Terminal Aerodrome Forecast
Issued by NWS

Home | Current Version | Previous Version | Graphics & Text | Print | Product List | Glossary On
Versions: 1 2 3 4 5 6 7 8 9 10 11 12 13 14 15 16 17 18
000
FTUS41 KCLE 191746
TAFFDY
TAF
KFDY 191746Z 1918/2018 18012KT 4SM -SHRA OVC010 WS020/22040KT
      TEMPO 1918/1920 2SM RA OVC008
     FM192100 21014KT P6SM -SHRA BKN020 OVC050 WS020/22045KT
     FM200000 21015KT P6SM VCSH OVC035 WS020/22045KT
     FM200500 20017G25KT P6SM -SHRA OVC025 WS020/22045KT
     FM200900 20017G27KT P6SM VCSH OVC020=

USA.gov is the U.S. government's official web portal to all federal, state and local government web resources and services.